createdAt,value
2023-01-20T00:02:17.541Z,-0.18
2023-01-20T00:04:44.724Z,-0.14
2023-01-20T00:07:11.705Z,-0.10
2023-01-20T00:09:38.775Z,-0.13
2023-01-20T00:12:05.838Z,-0.14
2023-01-20T00:14:32.998Z,-0.11
2023-01-20T00:17:00.230Z,-0.17
2023-01-20T00:19:27.622Z,-0.19
2023-01-20T00:21:54.913Z,-0.22
2023-01-20T00:24:21.964Z,-0.22
2023-01-20T00:26:48.983Z,-0.21
2023-01-20T00:29:16.142Z,-0.21
2023-01-20T00:31:43.306Z,-0.20
2023-01-20T00:34:11.458Z,-0.26
2023-01-20T00:36:38.549Z,-0.31
2023-01-20T00:39:05.652Z,-0.32
2023-01-20T00:41:32.788Z,-0.35
2023-01-20T00:44:00.062Z,-0.33
2023-01-20T00:46:27.258Z,-0.36
2023-01-20T00:48:54.594Z,-0.37
2023-01-20T00:51:21.717Z,-0.38
2023-01-20T00:53:48.965Z,-0.35
2023-01-20T00:56:16.109Z,-0.35
2023-01-20T00:58:44.220Z,-0.37
2023-01-20T01:01:11.819Z,-0.26
2023-01-20T01:03:38.807Z,-0.42
2023-01-20T01:06:07.345Z,-0.52
2023-01-20T01:08:34.893Z,-0.58
2023-01-20T01:11:02.092Z,-0.62
2023-01-20T01:13:29.123Z,-0.72
2023-01-20T01:15:56.251Z,-0.70
2023-01-20T01:18:23.296Z,-0.67
2023-01-20T01:20:50.406Z,-0.63
2023-01-20T01:23:17.540Z,-0.61
2023-01-20T01:25:44.608Z,-0.52
2023-01-20T01:28:11.677Z,-0.49
2023-01-20T01:30:38.729Z,-0.52
2023-01-20T01:33:05.809Z,-0.58
2023-01-20T01:35:32.840Z,-0.63
2023-01-20T01:37:59.865Z,-0.58
2023-01-20T01:40:26.847Z,-0.59
2023-01-20T01:42:53.863Z,-0.53
2023-01-20T01:45:22.870Z,-0.51
2023-01-20T01:48:05.533Z,-0.53
2023-01-20T01:50:37.493Z,-0.54
2023-01-20T01:53:05.272Z,-0.56
2023-01-20T01:55:35.377Z,-0.54
2023-01-20T01:58:05.222Z,-0.52
2023-01-20T02:00:33.335Z,-0.60
2023-01-20T02:03:01.491Z,-0.57
2023-01-20T02:05:30.654Z,-0.63
2023-01-20T02:07:58.657Z,-0.64
2023-01-20T02:10:28.205Z,-0.64
2023-01-20T02:12:57.414Z,-0.65
2023-01-20T02:15:34.511Z,-0.68
2023-01-20T02:18:10.469Z,-0.67
2023-01-20T02:20:44.364Z,-0.67
2023-01-20T02:23:30.329Z,-0.72
2023-01-20T02:26:00.504Z,-0.70
2023-01-20T02:28:31.067Z,-0.75
2023-01-20T02:30:58.415Z,-0.74
2023-01-20T02:33:30.733Z,-0.74
2023-01-20T02:36:10.480Z,-0.79
2023-01-20T02:38:42.580Z,-0.77
2023-01-20T02:41:15.734Z,-0.65
2023-01-20T02:43:53.577Z,-0.74
2023-01-20T02:46:27.738Z,-0.58
2023-01-20T02:49:14.562Z,-0.74
2023-01-20T02:51:44.417Z,-0.74
2023-01-20T02:54:17.385Z,-0.87
2023-01-20T02:56:45.417Z,-0.91
2023-01-20T02:59:15.038Z,-0.92
2023-01-20T03:01:51.213Z,-1.01
2023-01-20T03:04:22.080Z,-0.95
2023-01-20T03:06:55.193Z,-0.94
2023-01-20T03:09:29.093Z,-0.99
2023-01-20T03:11:59.534Z,-0.98
2023-01-20T03:14:28.267Z,-0.94
2023-01-20T03:16:56.714Z,-0.97
2023-01-20T03:19:28.237Z,-0.98
2023-01-20T03:21:56.497Z,-1.08
2023-01-20T03:24:24.792Z,-1.02
2023-01-20T03:26:54.279Z,-0.98
2023-01-20T03:29:23.678Z,-1.03
2023-01-20T03:32:00.153Z,-1.00
2023-01-20T03:34:30.379Z,-0.93
2023-01-20T03:36:59.789Z,-1.00
2023-01-20T03:39:27.450Z,-1.03
2023-01-20T03:42:00.862Z,-0.96
2023-01-20T03:44:34.421Z,-0.96
2023-01-20T03:47:01.922Z,-1.02
2023-01-20T03:49:49.447Z,-1.01
2023-01-20T03:52:47.064Z,-0.96
2023-01-20T03:55:27.362Z,-0.99
2023-01-20T03:57:58.391Z,-0.89
2023-01-20T04:00:29.642Z,-0.93
2023-01-20T04:02:59.193Z,-0.87
2023-01-20T04:05:26.636Z,-0.89
2023-01-20T04:07:57.948Z,-0.85
2023-01-20T04:10:29.768Z,-0.82
2023-01-20T04:12:57.859Z,-0.84
2023-01-20T04:15:29.690Z,-0.78
2023-01-20T04:17:58.623Z,-0.86
2023-01-20T04:20:28.662Z,-0.87
2023-01-20T04:22:59.601Z,-0.86
2023-01-20T04:25:29.469Z,-0.95
2023-01-20T04:27:57.371Z,-0.98
2023-01-20T04:30:28.176Z,-1.05
2023-01-20T04:32:56.882Z,-1.14
2023-01-20T04:35:24.618Z,-1.12
2023-01-20T04:37:52.273Z,-1.15
2023-01-20T04:40:20.683Z,-1.23
2023-01-20T04:42:48.600Z,-1.20
2023-01-20T04:45:16.824Z,-1.27
2023-01-20T04:47:44.775Z,-1.26
2023-01-20T04:50:13.294Z,-1.10
2023-01-20T04:52:40.721Z,-1.18
2023-01-20T04:55:08.526Z,-1.32
2023-01-20T04:57:37.970Z,-1.43
2023-01-20T05:00:06.523Z,-1.46
2023-01-20T05:02:33.949Z,-1.37
2023-01-20T05:05:01.291Z,-1.31
2023-01-20T05:07:29.862Z,-1.30
2023-01-20T05:09:57.293Z,-1.27
2023-01-20T05:12:24.761Z,-1.23
2023-01-20T05:14:52.832Z,-1.18
2023-01-20T05:17:20.807Z,-1.16
2023-01-20T05:19:49.045Z,-1.12
2023-01-20T05:22:16.558Z,-1.13
2023-01-20T05:24:43.806Z,-1.09
2023-01-20T05:27:11.773Z,-1.05
2023-01-20T05:29:39.747Z,-1.02
2023-01-20T05:32:06.983Z,-1.00
2023-01-20T05:34:34.544Z,-1.03
2023-01-20T05:37:01.800Z,-1.01
2023-01-20T05:39:30.093Z,-1.03
2023-01-20T05:41:59.068Z,-0.96
2023-01-20T05:44:27.833Z,-0.92
2023-01-20T05:46:56.377Z,-0.90
2023-01-20T05:49:23.900Z,-0.94
2023-01-20T05:51:51.325Z,-0.95
2023-01-20T05:54:18.608Z,-1.01
2023-01-20T05:56:47.909Z,-0.98
2023-01-20T05:59:15.725Z,-0.89
2023-01-20T06:01:43.514Z,-0.88
2023-01-20T06:04:10.692Z,-0.85
2023-01-20T06:06:38.421Z,-0.85
2023-01-20T06:09:06.830Z,-0.74
2023-01-20T06:11:34.227Z,-0.65
2023-01-20T06:14:03.055Z,-0.63
2023-01-20T06:16:30.104Z,-0.57
2023-01-20T06:18:57.779Z,-0.56
2023-01-20T06:21:25.871Z,-0.43
2023-01-20T06:23:54.476Z,-0.25
2023-01-20T06:26:21.726Z,-0.13
2023-01-20T06:28:49.326Z,-0.06
2023-01-20T06:31:18.135Z,-0.08
2023-01-20T06:33:45.587Z,-0.13
2023-01-20T06:36:17.213Z,-0.19
2023-01-20T06:38:51.162Z,-0.25
2023-01-20T06:41:20.251Z,-0.31
2023-01-20T06:43:51.572Z,-0.31
2023-01-20T06:46:19.962Z,-0.42
2023-01-20T06:48:49.256Z,-0.36
2023-01-20T06:51:19.965Z,-0.17
2023-01-20T06:53:47.223Z,-0.07
2023-01-20T06:56:15.241Z,-0.05
2023-01-20T06:58:42.710Z,0.06
2023-01-20T07:01:19.246Z,0.02
2023-01-20T07:03:47.304Z,-0.05
2023-01-20T07:06:16.166Z,-0.04
2023-01-20T07:08:45.070Z,-0.02
2023-01-20T07:11:12.783Z,0.08
2023-01-20T07:13:40.200Z,0.07
2023-01-20T07:16:10.656Z,0.16
2023-01-20T07:18:39.026Z,0.17
2023-01-20T07:21:06.191Z,0.19
2023-01-20T07:23:33.799Z,0.20
2023-01-20T07:26:02.313Z,0.19
2023-01-20T07:28:31.526Z,0.19
2023-01-20T07:31:05.673Z,0.17
2023-01-20T07:33:33.297Z,0.26
2023-01-20T07:36:01.254Z,0.27
2023-01-20T07:38:28.883Z,0.28
2023-01-20T07:40:59.262Z,0.32
2023-01-20T07:43:26.565Z,0.40
2023-01-20T07:45:59.034Z,0.42
2023-01-20T07:48:26.922Z,0.47
2023-01-20T07:51:05.131Z,0.48
2023-01-20T07:53:34.307Z,0.46
2023-01-20T07:56:04.741Z,0.47
2023-01-20T07:58:32.416Z,0.46
2023-01-20T08:01:09.486Z,0.40
2023-01-20T08:03:37.038Z,0.42
2023-01-20T08:06:04.860Z,0.46
2023-01-20T08:08:32.897Z,0.49
2023-01-20T08:11:01.868Z,0.55
2023-01-20T08:13:29.480Z,0.59
2023-01-20T08:16:00.651Z,0.65
2023-01-20T08:18:28.218Z,0.74
2023-01-20T08:20:56.136Z,0.72
2023-01-20T08:23:23.934Z,0.89
2023-01-20T08:26:00.731Z,1.06
2023-01-20T08:28:28.318Z,1.14
2023-01-20T08:30:56.347Z,1.20
2023-01-20T08:33:23.589Z,1.36
2023-01-20T08:35:52.437Z,1.69
2023-01-20T08:38:26.086Z,1.97
2023-01-20T08:40:54.106Z,2.17
2023-01-20T08:43:21.369Z,2.56
2023-01-20T08:45:57.667Z,2.84
2023-01-20T08:48:24.827Z,2.87
2023-01-20T08:50:51.895Z,3.05
2023-01-20T08:53:19.956Z,3.10
2023-01-20T08:55:57.186Z,3.35
2023-01-20T08:58:25.474Z,3.55
2023-01-20T09:00:54.256Z,3.66
2023-01-20T09:03:23.402Z,3.68
2023-01-20T09:05:50.955Z,3.82
2023-01-20T09:08:18.879Z,4.04
2023-01-20T09:10:46.662Z,4.57
2023-01-20T09:13:14.422Z,4.58
2023-01-20T09:15:42.899Z,4.79
2023-01-20T09:18:10.160Z,4.96
2023-01-20T09:20:37.319Z,5.53
2023-01-20T09:23:04.634Z,5.80
2023-01-20T09:25:32.645Z,6.03
2023-01-20T09:28:00.387Z,5.94
2023-01-20T09:30:27.576Z,6.05
2023-01-20T09:32:56.476Z,6.36
2023-01-20T09:35:24.731Z,6.47
2023-01-20T09:38:12.037Z,6.36
2023-01-20T09:41:13.058Z,6.34
2023-01-20T09:43:58.724Z,5.93
2023-01-20T09:46:26.037Z,5.99
2023-01-20T09:49:51.243Z,5.77
2023-01-20T09:52:58.096Z,5.85
2023-01-20T09:55:33.052Z,6.01
2023-01-20T09:58:06.397Z,6.20
2023-01-20T10:00:34.199Z,6.27
2023-01-20T10:03:07.106Z,6.65
2023-01-20T10:05:37.634Z,6.82
2023-01-20T10:08:08.955Z,6.96
2023-01-20T10:10:56.139Z,7.04
2023-01-20T10:13:29.155Z,7.08
2023-01-20T10:15:57.196Z,7.19
2023-01-20T10:18:27.958Z,6.76
2023-01-20T10:21:00.157Z,6.34
2023-01-20T10:23:33.961Z,6.48
2023-01-20T10:26:13.023Z,6.47
2023-01-20T10:28:55.413Z,6.53
2023-01-20T10:31:25.606Z,6.48
2023-01-20T10:33:55.148Z,6.86
2023-01-20T10:36:27.251Z,7.04
2023-01-20T10:38:58.121Z,7.27
2023-01-20T10:41:32.005Z,7.21
2023-01-20T10:44:00.859Z,6.37
2023-01-20T10:46:28.061Z,5.84
2023-01-20T10:49:07.468Z,6.18
2023-01-20T10:51:38.048Z,6.35
2023-01-20T10:54:23.728Z,6.19
2023-01-20T10:56:56.068Z,6.05
2023-01-20T10:59:32.201Z,5.69
2023-01-20T11:02:14.136Z,6.00
2023-01-20T11:04:41.572Z,6.13
2023-01-20T11:07:13.690Z,6.37
2023-01-20T11:09:42.293Z,6.33
2023-01-20T11:12:17.075Z,6.34
2023-01-20T11:14:45.201Z,6.15
2023-01-20T11:17:16.631Z,5.99
2023-01-20T11:19:54.090Z,5.90
2023-01-20T11:22:28.016Z,5.59
2023-01-20T11:24:56.173Z,5.61
2023-01-20T11:27:25.871Z,5.57
2023-01-20T11:29:57.807Z,5.71
2023-01-20T11:32:27.839Z,5.57
2023-01-20T11:34:57.297Z,5.52
2023-01-20T11:37:36.869Z,5.47
2023-01-20T11:40:19.394Z,5.50
2023-01-20T11:42:47.731Z,5.44
2023-01-20T11:45:26.987Z,5.56
2023-01-20T11:48:00.459Z,5.39
2023-01-20T11:50:38.793Z,5.33
2023-01-20T11:53:13.504Z,5.37
2023-01-20T11:55:45.777Z,5.51
2023-01-20T11:58:16.687Z,5.66
2023-01-20T12:00:44.294Z,5.69
2023-01-20T12:03:14.495Z,5.71
2023-01-20T12:05:48.397Z,5.64
2023-01-20T12:08:23.493Z,5.53
2023-01-20T12:10:51.196Z,5.67
2023-01-20T12:13:24.777Z,5.65
2023-01-20T12:15:54.750Z,5.78
2023-01-20T12:18:38.860Z,5.78
2023-01-20T12:21:18.155Z,5.83
2023-01-20T12:23:47.755Z,5.67
2023-01-20T12:26:16.454Z,5.68
2023-01-20T12:29:02.493Z,5.71
2023-01-20T12:31:29.961Z,5.75
2023-01-20T12:34:00.821Z,5.90
2023-01-20T12:36:46.838Z,6.13
2023-01-20T12:39:16.953Z,6.24
2023-01-20T12:41:44.160Z,6.09
2023-01-20T12:44:11.337Z,6.04
2023-01-20T12:46:45.678Z,5.99
2023-01-20T12:49:15.729Z,5.92
2023-01-20T12:51:51.557Z,5.92
2023-01-20T12:54:18.718Z,5.87
2023-01-20T12:57:04.805Z,5.98
2023-01-20T12:59:52.075Z,5.82
2023-01-20T13:02:22.261Z,5.75
2023-01-20T13:04:59.290Z,5.71
2023-01-20T13:07:50.457Z,5.64
2023-01-20T13:10:17.890Z,5.61
2023-01-20T13:12:54.807Z,5.50
2023-01-20T13:15:21.959Z,5.48
2023-01-20T13:17:49.109Z,5.53
2023-01-20T13:20:23.176Z,5.52
2023-01-20T13:22:51.179Z,5.63
2023-01-20T13:25:19.905Z,5.81
2023-01-20T13:27:48.178Z,5.58
2023-01-20T13:30:35.613Z,5.46
2023-01-20T13:33:04.635Z,5.52
2023-01-20T13:35:34.037Z,5.65
2023-01-20T13:38:01.486Z,5.69
2023-01-20T13:40:38.001Z,5.63
2023-01-20T13:43:26.710Z,5.59
2023-01-20T13:46:03.241Z,5.56
2023-01-20T13:48:31.577Z,5.68
2023-01-20T13:51:29.673Z,5.64
2023-01-20T13:54:15.345Z,5.56
2023-01-20T13:56:42.521Z,5.44
2023-01-20T13:59:09.553Z,5.39
2023-01-20T14:01:39.510Z,5.39
2023-01-20T14:04:13.955Z,5.48
2023-01-20T14:06:47.796Z,5.44
2023-01-20T14:09:19.459Z,5.51
2023-01-20T14:11:50.621Z,5.33
2023-01-20T14:14:22.465Z,5.29
2023-01-20T14:16:49.644Z,5.27
2023-01-20T14:19:23.267Z,5.28
2023-01-20T14:21:54.739Z,5.23
2023-01-20T14:24:27.242Z,5.22
2023-01-20T14:27:13.341Z,5.15
2023-01-20T14:29:40.440Z,5.21
2023-01-20T14:32:22.237Z,5.38
2023-01-20T14:34:50.620Z,5.50
2023-01-20T14:37:24.139Z,5.50
2023-01-20T14:39:51.592Z,5.34
2023-01-20T14:42:20.136Z,5.38
2023-01-20T14:44:47.995Z,5.25
2023-01-20T14:47:15.428Z,5.37
2023-01-20T14:49:43.961Z,5.22
2023-01-20T14:52:22.364Z,5.10
2023-01-20T14:54:56.104Z,5.07
2023-01-20T14:57:33.765Z,5.02
2023-01-20T15:00:09.904Z,5.05
2023-01-20T15:02:37.573Z,5.14
2023-01-20T15:05:25.411Z,5.09
2023-01-20T15:08:03.669Z,5.09
2023-01-20T15:10:30.934Z,5.10
2023-01-20T15:12:59.480Z,5.08
2023-01-20T15:15:28.770Z,5.08
2023-01-20T15:18:11.185Z,5.23
2023-01-20T15:20:40.849Z,5.02
2023-01-20T15:23:16.394Z,4.84
2023-01-20T15:25:43.552Z,4.82
2023-01-20T15:28:27.495Z,4.75
2023-01-20T15:30:55.954Z,4.75
2023-01-20T15:33:23.917Z,4.84
2023-01-20T15:35:53.839Z,4.75
2023-01-20T15:38:21.389Z,4.63
2023-01-20T15:40:48.440Z,4.54
2023-01-20T15:43:16.498Z,4.60
2023-01-20T15:45:43.986Z,4.42
2023-01-20T15:48:13.567Z,4.39
2023-01-20T15:50:41.989Z,4.24
2023-01-20T15:53:12.483Z,4.14
2023-01-20T15:55:42.475Z,3.90
2023-01-20T15:58:29.788Z,3.65
2023-01-20T16:00:57.848Z,3.38
2023-01-20T16:03:25.802Z,3.16
2023-01-20T16:05:54.883Z,3.00
2023-01-20T16:08:22.963Z,2.86
2023-01-20T16:10:50.473Z,2.74
2023-01-20T16:13:17.490Z,2.71
2023-01-20T16:15:44.707Z,2.70
2023-01-20T16:18:13.557Z,2.68
2023-01-20T16:20:41.385Z,2.68
2023-01-20T16:23:08.484Z,2.62
2023-01-20T16:25:35.939Z,2.65
2023-01-20T16:28:09.130Z,2.66
2023-01-20T16:30:36.126Z,2.66
2023-01-20T16:33:03.206Z,2.66
2023-01-20T16:35:30.240Z,2.57
2023-01-20T16:37:57.643Z,2.55
2023-01-20T16:40:24.710Z,2.52
2023-01-20T16:42:54.491Z,2.54
2023-01-20T16:45:23.618Z,2.60
2023-01-20T16:47:50.793Z,2.63
2023-01-20T16:50:18.538Z,2.66
2023-01-20T16:52:45.840Z,2.71
2023-01-20T16:55:13.719Z,2.75
2023-01-20T16:57:41.885Z,2.70
2023-01-20T17:00:09.973Z,2.66
2023-01-20T17:02:38.985Z,2.64
2023-01-20T17:05:07.494Z,2.61
2023-01-20T17:07:34.887Z,2.55
2023-01-20T17:10:02.064Z,2.56
2023-01-20T17:12:29.383Z,2.58
2023-01-20T17:14:56.553Z,2.57
2023-01-20T17:17:23.629Z,2.53
2023-01-20T17:19:50.778Z,2.56
2023-01-20T17:22:18.129Z,2.56
2023-01-20T17:24:45.290Z,2.52
2023-01-20T17:27:12.331Z,2.53
2023-01-20T17:29:39.678Z,2.46
2023-01-20T17:32:06.702Z,2.44
2023-01-20T17:34:33.868Z,2.39
2023-01-20T17:37:00.882Z,2.34
2023-01-20T17:39:28.023Z,2.31
2023-01-20T17:41:55.110Z,2.33
2023-01-20T17:44:22.232Z,2.29
2023-01-20T17:46:50.320Z,2.29
2023-01-20T17:49:17.739Z,2.27
2023-01-20T17:51:45.060Z,2.27
2023-01-20T17:54:12.153Z,2.26
2023-01-20T17:56:39.267Z,2.06
2023-01-20T17:59:06.482Z,2.09
2023-01-20T18:01:33.659Z,2.09
2023-01-20T18:04:01.337Z,1.96
2023-01-20T18:06:28.892Z,1.95
2023-01-20T18:08:57.617Z,1.98
2023-01-20T18:11:25.628Z,2.00
2023-01-20T18:13:55.184Z,1.91
2023-01-20T18:16:23.702Z,1.89
2023-01-20T18:18:51.237Z,1.93
2023-01-20T18:21:19.532Z,1.86
2023-01-20T18:23:47.470Z,1.84
2023-01-20T18:26:15.568Z,1.86
2023-01-20T18:28:43.026Z,1.84
2023-01-20T18:31:11.936Z,1.83
2023-01-20T18:33:41.016Z,1.66
2023-01-20T18:36:09.589Z,1.64
2023-01-20T18:38:38.320Z,1.60
2023-01-20T18:41:05.610Z,1.46
2023-01-20T18:43:32.934Z,1.51
2023-01-20T18:46:00.210Z,1.48
2023-01-20T18:48:27.326Z,1.43
2023-01-20T18:50:59.880Z,1.41
2023-01-20T18:53:27.330Z,1.44
2023-01-20T18:56:04.776Z,1.29
2023-01-20T18:58:32.912Z,1.25
2023-01-20T19:01:06.966Z,1.21
2023-01-20T19:03:34.557Z,1.18
2023-01-20T19:06:08.016Z,1.09
2023-01-20T19:08:35.241Z,1.02
2023-01-20T19:11:03.504Z,0.82
2023-01-20T19:13:30.875Z,0.73
2023-01-20T19:15:58.245Z,0.66
2023-01-20T19:18:25.305Z,0.65
2023-01-20T19:20:52.481Z,0.68
2023-01-20T19:23:19.880Z,0.64
2023-01-20T19:25:48.802Z,0.64
2023-01-20T19:28:15.983Z,0.58
2023-01-20T19:30:43.056Z,0.50
2023-01-20T19:33:12.088Z,0.49
2023-01-20T19:35:41.221Z,0.40
2023-01-20T19:38:09.053Z,0.39
2023-01-20T19:40:36.177Z,0.36
2023-01-20T19:43:03.174Z,0.38
2023-01-20T19:45:44.802Z,0.33
2023-01-20T19:48:12.520Z,0.30
2023-01-20T19:50:39.879Z,0.30
2023-01-20T19:53:06.877Z,0.27
2023-01-20T19:55:33.994Z,0.29
2023-01-20T19:58:01.033Z,0.31
2023-01-20T20:00:28.140Z,0.30
2023-01-20T20:02:55.671Z,0.28
2023-01-20T20:05:22.819Z,0.24
2023-01-20T20:07:51.084Z,0.22
2023-01-20T20:10:18.506Z,0.15
2023-01-20T20:12:45.928Z,0.12
2023-01-20T20:15:13.197Z,0.08
2023-01-20T20:17:40.511Z,0.04
2023-01-20T20:20:08.266Z,0.01
2023-01-20T20:22:35.541Z,-0.04
2023-01-20T20:25:02.803Z,-0.10
2023-01-20T20:27:30.053Z,-0.12
2023-01-20T20:30:01.155Z,-0.16
2023-01-20T20:32:28.753Z,-0.21
2023-01-20T20:34:58.470Z,-0.26
2023-01-20T20:37:26.013Z,-0.28
2023-01-20T20:39:53.314Z,-0.29
2023-01-20T20:42:20.940Z,-0.30
2023-01-20T20:44:48.233Z,-0.36
2023-01-20T20:47:15.533Z,-0.38
2023-01-20T20:49:42.878Z,-0.39
2023-01-20T20:52:10.242Z,-0.38
2023-01-20T20:54:37.561Z,-0.41
2023-01-20T20:57:05.046Z,-0.37
2023-01-20T20:59:32.437Z,-0.39
2023-01-20T21:01:59.741Z,-0.39
2023-01-20T21:04:27.096Z,-0.40
2023-01-20T21:06:54.360Z,-0.39
2023-01-20T21:09:21.613Z,-0.39
2023-01-20T21:11:48.827Z,-0.44
2023-01-20T21:14:17.587Z,-0.44
2023-01-20T21:16:44.890Z,-0.47
2023-01-20T21:19:12.217Z,-0.55
2023-01-20T21:21:39.716Z,-0.58
2023-01-20T21:24:09.959Z,-0.58
2023-01-20T21:26:37.277Z,-0.57
2023-01-20T21:29:04.530Z,-0.77
2023-01-20T21:31:32.447Z,-0.84
2023-01-20T21:34:01.086Z,-0.82
2023-01-20T21:36:29.459Z,-0.88
2023-01-20T21:38:59.000Z,-0.90
2023-01-20T21:41:26.487Z,-0.98
2023-01-20T21:44:32.233Z,-0.95
2023-01-20T21:47:04.563Z,-0.88
2023-01-20T21:49:54.997Z,-0.83
2023-01-20T21:52:42.477Z,-0.89
2023-01-20T21:55:15.910Z,-0.89
2023-01-20T21:57:43.214Z,-0.97
2023-01-20T22:00:11.687Z,-1.03
2023-01-20T22:02:40.692Z,-1.02
2023-01-20T22:05:08.396Z,-1.09
2023-01-20T22:07:35.651Z,-1.15
2023-01-20T22:10:03.861Z,-1.13
2023-01-20T22:12:34.485Z,-1.11
2023-01-20T22:15:03.236Z,-1.13
2023-01-20T22:17:31.167Z,-1.00
2023-01-20T22:19:58.348Z,-1.17
2023-01-20T22:22:25.735Z,-1.23
2023-01-20T22:24:53.509Z,-1.24
2023-01-20T22:27:20.876Z,-1.35
2023-01-20T22:29:48.182Z,-1.46
2023-01-20T22:32:15.635Z,-1.45
2023-01-20T22:34:42.810Z,-1.44
2023-01-20T22:37:10.174Z,-1.46
2023-01-20T22:39:37.380Z,-1.49
2023-01-20T22:42:04.761Z,-1.52
2023-01-20T22:44:31.978Z,-1.57
2023-01-20T22:46:59.252Z,-1.48
2023-01-20T22:49:26.643Z,-1.36
2023-01-20T22:51:54.713Z,-1.50
2023-01-20T22:54:22.031Z,-1.56
2023-01-20T22:56:49.372Z,-1.52
2023-01-20T22:59:16.674Z,-1.51
2023-01-20T23:01:43.950Z,-1.47
2023-01-20T23:04:11.321Z,-1.54
2023-01-20T23:06:39.280Z,-1.52
2023-01-20T23:09:09.253Z,-1.56
2023-01-20T23:11:38.303Z,-1.53
2023-01-20T23:14:06.568Z,-1.47
2023-01-20T23:16:33.928Z,-1.51
2023-01-20T23:19:01.175Z,-1.53
2023-01-20T23:21:28.525Z,-1.56
2023-01-20T23:23:55.784Z,-1.66
2023-01-20T23:26:25.486Z,-1.57
2023-01-20T23:28:53.953Z,-1.57
2023-01-20T23:31:23.510Z,-1.67
2023-01-20T23:33:52.702Z,-1.64
2023-01-20T23:36:25.124Z,-1.62
2023-01-20T23:38:56.505Z,-1.59
2023-01-20T23:41:24.752Z,-1.63
2023-01-20T23:43:52.252Z,-1.64
2023-01-20T23:46:19.541Z,-1.64
2023-01-20T23:48:47.546Z,-1.61
2023-01-20T23:51:15.284Z,-1.62
2023-01-20T23:53:42.844Z,-1.72
2023-01-20T23:56:13.428Z,-1.70
2023-01-20T23:58:41.343Z,-1.82
